EIN16Y EIDW-EGLL
Flight info
| Callsign | EIN16Y |
|---|---|
| Flight time | N/A |
| Altitude | 35000 |
| Route | PESIT4E PESIT DCT BAKUR DCT ECCIT DCT GUBJE DCT GISOK DCT TACQI DCT FONZU DCT ELRIP DCT OTMET |
| Aircraft | A320/M-SDE3FGHIRWY/LB1 |
Departure
| Time | 2026-04-30 19:53 |
|---|---|
| Airport | Dublin Airport (EIDW) |
Arrival
| Time | N/A |
|---|---|
| Airport | London Heathrow Airport (EGLL) |
| Time | Latitude | Longitude | Altitude | Speed | Heading |
|---|---|---|---|---|---|
| 2026-04-30 19:19 | 53.42378 | -6.24168 | 374 ft | 0 kts | 315° |
| 2026-04-30 19:38 | 53.42369 | -6.24152 | 211 ft | 4 kts | 313° |
| 2026-04-30 19:38 | 53.42352 | -6.24118 | 222 ft | 4 kts | 303° |
| 2026-04-30 19:38 | 53.42341 | -6.24079 | 212 ft | 4 kts | 272° |
| 2026-04-30 19:38 | 53.42344 | -6.24051 | 211 ft | 0 kts | 227° |
| 2026-04-30 19:41 | 53.42313 | -6.24098 | 211 ft | 7 kts | 212° |
| 2026-04-30 19:41 | 53.42268 | -6.24123 | 213 ft | 7 kts | 197° |
| 2026-04-30 19:41 | 53.42211 | -6.24174 | 216 ft | 12 kts | 219° |
| 2026-04-30 19:42 | 53.42158 | -6.24288 | 215 ft | 12 kts | 261° |
| 2026-04-30 19:42 | 53.42164 | -6.24425 | 220 ft | 11 kts | 275° |
| 2026-04-30 19:42 | 53.42170 | -6.24549 | 211 ft | 10 kts | 275° |
| 2026-04-30 19:42 | 53.42177 | -6.24661 | 215 ft | 9 kts | 276° |
| 2026-04-30 19:43 | 53.42183 | -6.24759 | 211 ft | 8 kts | 276° |
| 2026-04-30 19:43 | 53.42188 | -6.24846 | 211 ft | 7 kts | 274° |
| 2026-04-30 19:43 | 53.42190 | -6.24913 | 211 ft | 2 kts | 274° |
| 2026-04-30 19:44 | 53.42190 | -6.24916 | 211 ft | 0 kts | 274° |
| 2026-04-30 19:45 | 53.42195 | -6.25003 | 215 ft | 21 kts | 276° |
| 2026-04-30 19:46 | 53.42204 | -6.25171 | 210 ft | 21 kts | 275° |
| 2026-04-30 19:46 | 53.42221 | -6.25478 | 219 ft | 19 kts | 275° |
| 2026-04-30 19:46 | 53.42232 | -6.25681 | 214 ft | 16 kts | 275° |
| 2026-04-30 19:46 | 53.42242 | -6.25857 | 213 ft | 14 kts | 276° |
| 2026-04-30 19:47 | 53.42248 | -6.25962 | 213 ft | 12 kts | 275° |
| 2026-04-30 19:47 | 53.42255 | -6.26091 | 211 ft | 10 kts | 275° |
| 2026-04-30 19:47 | 53.42263 | -6.26232 | 211 ft | 13 kts | 276° |
| 2026-04-30 19:47 | 53.42270 | -6.26359 | 211 ft | 10 kts | 276° |
| 2026-04-30 19:48 | 53.42275 | -6.26452 | 218 ft | 8 kts | 275° |
| 2026-04-30 19:48 | 53.42282 | -6.26586 | 214 ft | 13 kts | 275° |
| 2026-04-30 19:48 | 53.42292 | -6.26755 | 211 ft | 16 kts | 275° |
| 2026-04-30 19:48 | 53.42303 | -6.26959 | 211 ft | 19 kts | 275° |
| 2026-04-30 19:49 | 53.42315 | -6.27180 | 215 ft | 18 kts | 275° |
| 2026-04-30 19:49 | 53.42332 | -6.27507 | 211 ft | 11 kts | 275° |
| 2026-04-30 19:49 | 53.42343 | -6.27687 | 211 ft | 16 kts | 275° |
| 2026-04-30 19:50 | 53.42352 | -6.27850 | 214 ft | 12 kts | 275° |
| 2026-04-30 19:50 | 53.42360 | -6.28004 | 211 ft | 17 kts | 275° |
| 2026-04-30 19:50 | 53.42369 | -6.28171 | 211 ft | 14 kts | 275° |
| 2026-04-30 19:50 | 53.42379 | -6.28343 | 213 ft | 13 kts | 275° |
| 2026-04-30 19:51 | 53.42386 | -6.28480 | 211 ft | 15 kts | 275° |
| 2026-04-30 19:51 | 53.42397 | -6.28674 | 211 ft | 15 kts | 276° |
| 2026-04-30 19:51 | 53.42405 | -6.28822 | 211 ft | 10 kts | 275° |
| 2026-04-30 19:51 | 53.42411 | -6.28973 | 213 ft | 13 kts | 261° |
| 2026-04-30 19:52 | 53.42364 | -6.29069 | 211 ft | 11 kts | 204° |
| 2026-04-30 19:52 | 53.42293 | -6.29071 | 210 ft | 13 kts | 174° |
| 2026-04-30 19:52 | 53.42243 | -6.29023 | 209 ft | 8 kts | 105° |
| 2026-04-30 19:52 | 53.42238 | -6.28952 | 215 ft | 8 kts | 94° |
| 2026-04-30 19:53 | 53.42215 | -6.28504 | 212 ft | 75 kts | 95° |
| 2026-04-30 19:53 | 53.42148 | -6.27283 | 215 ft | 135 kts | 95° |
| 2026-04-30 19:53 | 53.42058 | -6.25522 | 488 ft | 158 kts | 94° |
| 2026-04-30 19:53 | 53.41948 | -6.23647 | 1083 ft | 164 kts | 99° |
| 2026-04-30 19:54 | 53.41851 | -6.21722 | 1787 ft | 167 kts | 101° |
| 2026-04-30 19:54 | 53.41817 | -6.19759 | 2471 ft | 169 kts | 98° |
| 2026-04-30 19:54 | 53.41804 | -6.17786 | 3069 ft | 170 kts | 99° |
| 2026-04-30 19:54 | 53.41676 | -6.15813 | 3652 ft | 172 kts | 104° |
| 2026-04-30 19:55 | 53.41479 | -6.13730 | 4026 ft | 192 kts | 103° |
| 2026-04-30 19:55 | 53.41298 | -6.11360 | 4353 ft | 218 kts | 101° |
| 2026-04-30 19:55 | 53.41118 | -6.08689 | 4823 ft | 242 kts | 100° |
| 2026-04-30 19:55 | 53.40945 | -6.05829 | 5578 ft | 252 kts | 100° |
| 2026-04-30 19:56 | 53.40545 | -6.02972 | 6413 ft | 253 kts | 120° |
| 2026-04-30 19:56 | 53.39442 | -6.00697 | 7231 ft | 254 kts | 145° |
| 2026-04-30 19:56 | 53.37838 | -5.99478 | 8098 ft | 257 kts | 169° |
| 2026-04-30 19:56 | 53.36045 | -5.99524 | 9005 ft | 262 kts | 188° |
| 2026-04-30 19:57 | 53.34244 | -6.00064 | 9936 ft | 264 kts | 188° |
| 2026-04-30 19:57 | 53.32400 | -6.00623 | 10495 ft | 280 kts | 188° |
| 2026-04-30 19:57 | 53.30403 | -6.01222 | 10760 ft | 304 kts | 188° |
| 2026-04-30 19:57 | 53.28255 | -6.01955 | 10971 ft | 328 kts | 194° |
| 2026-04-30 19:58 | 53.26026 | -6.03098 | 11482 ft | 339 kts | 194° |
| 2026-04-30 19:58 | 53.23756 | -6.04261 | 12206 ft | 343 kts | 194° |
| 2026-04-30 19:58 | 53.21463 | -6.05429 | 12947 ft | 347 kts | 194° |
| 2026-04-30 19:58 | 53.19123 | -6.06433 | 13673 ft | 348 kts | 187° |
| 2026-04-30 19:59 | 53.16707 | -6.06890 | 14357 ft | 351 kts | 184° |
| 2026-04-30 19:59 | 53.14272 | -6.07297 | 15000 ft | 354 kts | 184° |
| 2026-04-30 19:59 | 53.09355 | -6.06901 | 16264 ft | 358 kts | 165° |
| 2026-04-30 20:00 | 53.06949 | -6.05797 | 16923 ft | 360 kts | 164° |
| 2026-04-30 20:00 | 53.04553 | -6.04696 | 17563 ft | 363 kts | 164° |
| 2026-04-30 20:00 | 53.02103 | -6.03579 | 18210 ft | 367 kts | 164° |
| 2026-04-30 20:00 | 52.99597 | -6.02440 | 18782 ft | 370 kts | 165° |
| 2026-04-30 20:01 | 52.94626 | -6.00188 | 19846 ft | 376 kts | 165° |
| 2026-04-30 20:01 | 52.92097 | -5.99039 | 20365 ft | 379 kts | 165° |
| 2026-04-30 20:01 | 52.89543 | -5.97881 | 20870 ft | 381 kts | 165° |
| 2026-04-30 20:02 | 52.84386 | -5.95546 | 21839 ft | 387 kts | 165° |
| 2026-04-30 20:02 | 52.81782 | -5.94370 | 22305 ft | 390 kts | 165° |
| 2026-04-30 20:03 | 52.76503 | -5.91994 | 23192 ft | 395 kts | 165° |
| 2026-04-30 20:03 | 52.73843 | -5.90799 | 23619 ft | 398 kts | 165° |
| 2026-04-30 20:03 | 52.71162 | -5.89593 | 23974 ft | 400 kts | 165° |
| 2026-04-30 20:03 | 52.68465 | -5.88377 | 24338 ft | 402 kts | 165° |
| 2026-04-30 20:04 | 52.65758 | -5.87157 | 24688 ft | 404 kts | 165° |
| 2026-04-30 20:04 | 52.63036 | -5.85939 | 25029 ft | 407 kts | 165° |
| 2026-04-30 20:04 | 52.60299 | -5.84722 | 25378 ft | 408 kts | 165° |
| 2026-04-30 20:05 | 52.54788 | -5.82271 | 26039 ft | 412 kts | 165° |
| 2026-04-30 20:05 | 52.52022 | -5.81042 | 26349 ft | 413 kts | 165° |
| 2026-04-30 20:05 | 52.46438 | -5.78559 | 26950 ft | 417 kts | 165° |
| 2026-04-30 20:06 | 52.43630 | -5.77309 | 27232 ft | 419 kts | 165° |
| 2026-04-30 20:06 | 52.40816 | -5.76063 | 27500 ft | 421 kts | 165° |
| 2026-04-30 20:06 | 52.37985 | -5.74794 | 27758 ft | 422 kts | 164° |
| 2026-04-30 20:06 | 52.35158 | -5.73457 | 28023 ft | 424 kts | 164° |
| 2026-04-30 20:07 | 52.32328 | -5.72071 | 28243 ft | 425 kts | 163° |
| 2026-04-30 20:07 | 52.29527 | -5.70677 | 28459 ft | 427 kts | 163° |
| 2026-04-30 20:07 | 52.23841 | -5.67935 | 29061 ft | 425 kts | 167° |
| 2026-04-30 20:08 | 52.20944 | -5.67005 | 29375 ft | 424 kts | 169° |
| 2026-04-30 20:08 | 52.18050 | -5.66107 | 29688 ft | 424 kts | 169° |
| 2026-04-30 20:08 | 52.15171 | -5.65097 | 29999 ft | 423 kts | 164° |
| 2026-04-30 20:08 | 52.12411 | -5.63420 | 30285 ft | 424 kts | 155° |
| 2026-04-30 20:09 | 52.09851 | -5.61022 | 30527 ft | 426 kts | 147° |
| 2026-04-30 20:09 | 52.07419 | -5.58270 | 30775 ft | 426 kts | 147° |
| 2026-04-30 20:09 | 52.02412 | -5.53167 | 31261 ft | 424 kts | 155° |
| 2026-04-30 20:10 | 51.97103 | -5.48984 | 31759 ft | 425 kts | 155° |
| 2026-04-30 20:10 | 51.94445 | -5.46893 | 32011 ft | 425 kts | 155° |
| 2026-04-30 20:10 | 51.91785 | -5.44803 | 32253 ft | 425 kts | 155° |
| 2026-04-30 20:11 | 51.86455 | -5.40619 | 32727 ft | 426 kts | 155° |
| 2026-04-30 20:11 | 51.83780 | -5.38518 | 32976 ft | 427 kts | 155° |
| 2026-04-30 20:11 | 51.81105 | -5.36421 | 33097 ft | 427 kts | 155° |
| 2026-04-30 20:12 | 51.73085 | -5.30139 | 33107 ft | 427 kts | 155° |
| 2026-04-30 20:13 | 51.67728 | -5.25971 | 33105 ft | 427 kts | 156° |
| 2026-04-30 20:13 | 51.62374 | -5.21817 | 33108 ft | 427 kts | 156° |
| 2026-04-30 20:14 | 51.57019 | -5.17672 | 33114 ft | 427 kts | 156° |
| 2026-04-30 20:14 | 51.51672 | -5.13496 | 33112 ft | 428 kts | 153° |
| 2026-04-30 20:15 | 51.46912 | -5.07735 | 33112 ft | 431 kts | 141° |
| 2026-04-30 20:15 | 51.42425 | -5.01348 | 33114 ft | 432 kts | 141° |
| 2026-04-30 20:16 | 51.37920 | -4.94991 | 33108 ft | 432 kts | 141° |
| 2026-04-30 20:16 | 51.33405 | -4.88643 | 33108 ft | 432 kts | 141° |
| 2026-04-30 20:17 | 51.28915 | -4.82352 | 33104 ft | 432 kts | 141° |
| 2026-04-30 20:17 | 51.24403 | -4.76046 | 33091 ft | 432 kts | 141° |
| 2026-04-30 20:18 | 51.19862 | -4.69706 | 33105 ft | 435 kts | 141° |
| 2026-04-30 20:18 | 51.15303 | -4.63346 | 33106 ft | 435 kts | 141° |
| 2026-04-30 20:19 | 51.10744 | -4.57002 | 33107 ft | 435 kts | 141° |
| 2026-04-30 20:19 | 51.06173 | -4.50680 | 33106 ft | 436 kts | 140° |
| 2026-04-30 20:20 | 51.02366 | -4.43114 | 33103 ft | 442 kts | 123° |
| 2026-04-30 20:20 | 50.99231 | -4.34701 | 33103 ft | 443 kts | 124° |